sensor_id;sensor_type;location;lat;lon;timestamp;pressure;altitude;pressure_sealevel;temperature;humidity
74708;BME280;63360;50.104;8.074;2023-11-19T00:02:26;96909.38;;;7.27;100.00
74708;BME280;63360;50.104;8.074;2023-11-19T00:04:53;96919.44;;;7.28;100.00
74708;BME280;63360;50.104;8.074;2023-11-19T00:07:19;96928.66;;;7.21;100.00
74708;BME280;63360;50.104;8.074;2023-11-19T00:09:47;96945.88;;;7.25;100.00
74708;BME280;63360;50.104;8.074;2023-11-19T00:12:13;96951.84;;;7.26;100.00
74708;BME280;63360;50.104;8.074;2023-11-19T00:14:40;96941.47;;;7.26;100.00
74708;BME280;63360;50.104;8.074;2023-11-19T00:17:07;96926.22;;;7.24;100.00
74708;BME280;63360;50.104;8.074;2023-11-19T00:19:33;96927.47;;;7.27;100.00
74708;BME280;63360;50.104;8.074;2023-11-19T00:21:59;96926.22;;;7.24;100.00
74708;BME280;63360;50.104;8.074;2023-11-19T00:24:29;96920.59;;;7.22;100.00
74708;BME280;63360;50.104;8.074;2023-11-19T00:26:56;96912.94;;;7.17;100.00
74708;BME280;63360;50.104;8.074;2023-11-19T00:29:23;96903.53;;;7.21;100.00
74708;BME280;63360;50.104;8.074;2023-11-19T00:31:49;96906.13;;;7.21;100.00
74708;BME280;63360;50.104;8.074;2023-11-19T00:34:16;96913.31;;;7.24;100.00
74708;BME280;63360;50.104;8.074;2023-11-19T00:36:42;96912.72;;;7.27;100.00
74708;BME280;63360;50.104;8.074;2023-11-19T00:39:11;96916.66;;;7.25;100.00
74708;BME280;63360;50.104;8.074;2023-11-19T00:41:37;96915.41;;;7.22;100.00
74708;BME280;63360;50.104;8.074;2023-11-19T00:44:03;96913.50;;;7.28;100.00
74708;BME280;63360;50.104;8.074;2023-11-19T00:46:30;96901.72;;;7.22;100.00
74708;BME280;63360;50.104;8.074;2023-11-19T00:48:57;96893.06;;;7.26;100.00
74708;BME280;63360;50.104;8.074;2023-11-19T00:51:25;96868.56;;;7.24;100.00
74708;BME280;63360;50.104;8.074;2023-11-19T00:53:52;96875.56;;;7.23;100.00
74708;BME280;63360;50.104;8.074;2023-11-19T00:56:21;96864.72;;;7.21;100.00
74708;BME280;63360;50.104;8.074;2023-11-19T00:58:48;96861.66;;;7.19;100.00
74708;BME280;63360;50.104;8.074;2023-11-19T01:01:14;96865.22;;;7.23;100.00
74708;BME280;63360;50.104;8.074;2023-11-19T01:03:40;96859.75;;;7.25;100.00
74708;BME280;63360;50.104;8.074;2023-11-19T01:06:07;96857.47;;;7.23;100.00
74708;BME280;63360;50.104;8.074;2023-11-19T01:08:34;96858.97;;;7.24;100.00
74708;BME280;63360;50.104;8.074;2023-11-19T01:11:02;96879.97;;;7.23;100.00
74708;BME280;63360;50.104;8.074;2023-11-19T01:13:28;96859.56;;;7.21;100.00
74708;BME280;63360;50.104;8.074;2023-11-19T01:15:55;96844.03;;;7.21;100.00
74708;BME280;63360;50.104;8.074;2023-11-19T01:18:22;96850.28;;;7.20;100.00
74708;BME280;63360;50.104;8.074;2023-11-19T01:20:49;96853.63;;;7.21;100.00
74708;BME280;63360;50.104;8.074;2023-11-19T01:23:15;96859.09;;;7.19;100.00
74708;BME280;63360;50.104;8.074;2023-11-19T01:25:42;96867.03;;;7.23;100.00
74708;BME280;63360;50.104;8.074;2023-11-19T01:28:08;96868.66;;;7.19;100.00
74708;BME280;63360;50.104;8.074;2023-11-19T01:30:34;96872.97;;;7.23;100.00
74708;BME280;63360;50.104;8.074;2023-11-19T01:33:01;96889.25;;;7.24;100.00
74708;BME280;63360;50.104;8.074;2023-11-19T01:35:27;96889.75;;;7.26;100.00
74708;BME280;63360;50.104;8.074;2023-11-19T01:37:53;96872.88;;;7.28;100.00
74708;BME280;63360;50.104;8.074;2023-11-19T01:40:21;96876.50;;;7.27;100.00
74708;BME280;63360;50.104;8.074;2023-11-19T01:42:47;96872.09;;;7.28;100.00
74708;BME280;63360;50.104;8.074;2023-11-19T01:45:23;96868.94;;;7.31;100.00
74708;BME280;63360;50.104;8.074;2023-11-19T01:47:53;96849.28;;;7.30;100.00
74708;BME280;63360;50.104;8.074;2023-11-19T01:50:19;96849.28;;;7.30;100.00
74708;BME280;63360;50.104;8.074;2023-11-19T01:52:46;96844.00;;;7.35;100.00
74708;BME280;63360;50.104;8.074;2023-11-19T01:55:13;96832.72;;;7.31;100.00
74708;BME280;63360;50.104;8.074;2023-11-19T01:57:40;96831.84;;;7.36;100.00
74708;BME280;63360;50.104;8.074;2023-11-19T02:00:08;96830.91;;;7.31;100.00
74708;BME280;63360;50.104;8.074;2023-11-19T02:02:40;96825.63;;;7.37;100.00
74708;BME280;63360;50.104;8.074;2023-11-19T02:05:07;96821.97;;;7.38;100.00
74708;BME280;63360;50.104;8.074;2023-11-19T02:07:34;96820.13;;;7.38;100.00
74708;BME280;63360;50.104;8.074;2023-11-19T02:10:00;96824.06;;;7.36;100.00
74708;BME280;63360;50.104;8.074;2023-11-19T02:12:28;96814.78;;;7.34;100.00
74708;BME280;63360;50.104;8.074;2023-11-19T02:14:55;96813.91;;;7.39;100.00
74708;BME280;63360;50.104;8.074;2023-11-19T02:17:29;96817.16;;;7.45;100.00
74708;BME280;63360;50.104;8.074;2023-11-19T02:19:58;96805.38;;;7.39;100.00
74708;BME280;63360;50.104;8.074;2023-11-19T02:22:24;96809.41;;;7.45;100.00
74708;BME280;63360;50.104;8.074;2023-11-19T02:24:55;96818.09;;;7.49;100.00
74708;BME280;63360;50.104;8.074;2023-11-19T02:27:30;96805.75;;;7.46;100.00
74708;BME280;63360;50.104;8.074;2023-11-19T02:29:59;96804.88;;;7.50;100.00
74708;BME280;63360;50.104;8.074;2023-11-19T02:32:27;96804.09;;;7.50;100.00
74708;BME280;63360;50.104;8.074;2023-11-19T02:34:54;96792.22;;;7.49;100.00
74708;BME280;63360;50.104;8.074;2023-11-19T02:37:32;96792.03;;;7.45;100.00
74708;BME280;63360;50.104;8.074;2023-11-19T02:39:58;96796.47;;;7.45;100.00
74708;BME280;63360;50.104;8.074;2023-11-19T02:42:35;96795.13;;;7.47;100.00
74708;BME280;63360;50.104;8.074;2023-11-19T02:45:02;96782.75;;;7.44;100.00
74708;BME280;63360;50.104;8.074;2023-11-19T02:47:33;96776.81;;;7.44;100.00
74708;BME280;63360;50.104;8.074;2023-11-19T02:50:00;96777.56;;;7.44;100.00
74708;BME280;63360;50.104;8.074;2023-11-19T02:52:26;96784.25;;;7.45;100.00
74708;BME280;63360;50.104;8.074;2023-11-19T02:54:53;96789.75;;;7.44;100.00
74708;BME280;63360;50.104;8.074;2023-11-19T02:57:19;96768.75;;;7.45;100.00
74708;BME280;63360;50.104;8.074;2023-11-19T02:59:48;96759.47;;;7.44;100.00
74708;BME280;63360;50.104;8.074;2023-11-19T03:02:15;96768.94;;;7.49;100.00
74708;BME280;63360;50.104;8.074;2023-11-19T03:04:42;96773.06;;;7.50;100.00
74708;BME280;63360;50.104;8.074;2023-11-19T03:07:10;96774.28;;;7.52;100.00
74708;BME280;63360;50.104;8.074;2023-11-19T03:09:36;96770.75;;;7.48;100.00
74708;BME280;63360;50.104;8.074;2023-11-19T03:12:03;96774.56;;;7.51;100.00
74708;BME280;63360;50.104;8.074;2023-11-19T03:14:33;96774.75;;;7.54;100.00
74708;BME280;63360;50.104;8.074;2023-11-19T03:17:00;96769.47;;;7.59;100.00
74708;BME280;63360;50.104;8.074;2023-11-19T03:19:27;96778.91;;;7.64;100.00
74708;BME280;63360;50.104;8.074;2023-11-19T03:21:53;96771.91;;;7.64;100.00
74708;BME280;63360;50.104;8.074;2023-11-19T03:24:20;96761.44;;;7.69;100.00
74708;BME280;63360;50.104;8.074;2023-11-19T03:26:50;96759.34;;;7.71;100.00
74708;BME280;63360;50.104;8.074;2023-11-19T03:29:16;96767.44;;;7.78;100.00
74708;BME280;63360;50.104;8.074;2023-11-19T03:31:43;96763.31;;;7.77;100.00
74708;BME280;63360;50.104;8.074;2023-11-19T03:34:10;96770.03;;;7.78;100.00
74708;BME280;63360;50.104;8.074;2023-11-19T03:36:37;96768.09;;;7.84;100.00
74708;BME280;63360;50.104;8.074;2023-11-19T03:39:03;96767.97;;;7.89;100.00
74708;BME280;63360;50.104;8.074;2023-11-19T03:41:29;96764.59;;;7.88;100.00
74708;BME280;63360;50.104;8.074;2023-11-19T03:44:07;96768.28;;;7.87;100.00
74708;BME280;63360;50.104;8.074;2023-11-19T03:46:33;96772.97;;;7.85;100.00
74708;BME280;63360;50.104;8.074;2023-11-19T03:49:01;96764.47;;;7.85;100.00
74708;BME280;63360;50.104;8.074;2023-11-19T03:51:28;96758.38;;;7.89;100.00
74708;BME280;63360;50.104;8.074;2023-11-19T03:53:54;96766.91;;;7.90;100.00
74708;BME280;63360;50.104;8.074;2023-11-19T03:56:21;96767.97;;;7.89;100.00
74708;BME280;63360;50.104;8.074;2023-11-19T03:58:47;96771.53;;;8.02;100.00
74708;BME280;63360;50.104;8.074;2023-11-19T04:01:13;96760.38;;;7.92;100.00
74708;BME280;63360;50.104;8.074;2023-11-19T04:03:40;96752.44;;;7.89;100.00
74708;BME280;63360;50.104;8.074;2023-11-19T04:06:16;96748.47;;;7.91;100.00
74708;BME280;63360;50.104;8.074;2023-11-19T04:08:43;96752.63;;;7.92;100.00
74708;BME280;63360;50.104;8.074;2023-11-19T04:11:10;96758.53;;;7.93;100.00
74708;BME280;63360;50.104;8.074;2023-11-19T04:13:36;96756.84;;;7.88;100.00
74708;BME280;63360;50.104;8.074;2023-11-19T04:16:03;96742.66;;;7.86;100.00
74708;BME280;63360;50.104;8.074;2023-11-19T04:18:30;96742.06;;;7.89;100.00
74708;BME280;63360;50.104;8.074;2023-11-19T04:20:58;96754.00;;;7.99;100.00
74708;BME280;63360;50.104;8.074;2023-11-19T04:23:24;96739.81;;;7.96;100.00
74708;BME280;63360;50.104;8.074;2023-11-19T04:25:51;96741.94;;;7.94;100.00
74708;BME280;63360;50.104;8.074;2023-11-19T04:28:17;96740.13;;;7.94;100.00
74708;BME280;63360;50.104;8.074;2023-11-19T04:30:44;96739.69;;;8.01;100.00
74708;BME280;63360;50.104;8.074;2023-11-19T04:33:10;96737.59;;;8.03;100.00
74708;BME280;63360;50.104;8.074;2023-11-19T04:35:36;96745.34;;;8.03;100.00
74708;BME280;63360;50.104;8.074;2023-11-19T04:38:03;96736.22;;;8.06;100.00
74708;BME280;63360;50.104;8.074;2023-11-19T04:40:29;96741.41;;;8.06;100.00
74708;BME280;63360;50.104;8.074;2023-11-19T04:42:56;96731.03;;;8.06;100.00
74708;BME280;63360;50.104;8.074;2023-11-19T04:45:22;96729.09;;;8.11;100.00
74708;BME280;63360;50.104;8.074;2023-11-19T04:47:48;96731.88;;;8.23;100.00
74708;BME280;63360;50.104;8.074;2023-11-19T04:50:15;96739.03;;;8.26;100.00
74708;BME280;63360;50.104;8.074;2023-11-19T04:52:41;96735.69;;;8.26;100.00
74708;BME280;63360;50.104;8.074;2023-11-19T04:55:12;96744.72;;;8.28;100.00
74708;BME280;63360;50.104;8.074;2023-11-19T04:57:38;96745.78;;;8.36;100.00
74708;BME280;63360;50.104;8.074;2023-11-19T05:00:05;96741.38;;;8.36;100.00
74708;BME280;63360;50.104;8.074;2023-11-19T05:02:42;96738.50;;;8.38;100.00
74708;BME280;63360;50.104;8.074;2023-11-19T05:05:09;96746.91;;;8.43;100.00
74708;BME280;63360;50.104;8.074;2023-11-19T05:07:36;96750.72;;;8.46;100.00
74708;BME280;63360;50.104;8.074;2023-11-19T05:10:03;96740.38;;;8.46;100.00
74708;BME280;63360;50.104;8.074;2023-11-19T05:12:30;96738.22;;;8.48;100.00
74708;BME280;63360;50.104;8.074;2023-11-19T05:14:57;96746.47;;;8.50;100.00
74708;BME280;63360;50.104;8.074;2023-11-19T05:17:23;96743.59;;;8.51;100.00
74708;BME280;63360;50.104;8.074;2023-11-19T05:19:50;96728.78;;;8.52;100.00
74708;BME280;63360;50.104;8.074;2023-11-19T05:22:16;96731.06;;;8.53;100.00
74708;BME280;63360;50.104;8.074;2023-11-19T05:24:43;96730.63;;;8.60;100.00
74708;BME280;63360;50.104;8.074;2023-11-19T05:27:10;96727.44;;;8.63;100.00
74708;BME280;63360;50.104;8.074;2023-11-19T05:29:37;96714.78;;;8.62;100.00
74708;BME280;63360;50.104;8.074;2023-11-19T05:32:05;96715.41;;;8.67;100.00
74708;BME280;63360;50.104;8.074;2023-11-19T05:34:31;96722.41;;;8.67;100.00
74708;BME280;63360;50.104;8.074;2023-11-19T05:36:58;96722.09;;;8.68;100.00
74708;BME280;63360;50.104;8.074;2023-11-19T05:39:24;96726.81;;;8.66;100.00
74708;BME280;63360;50.104;8.074;2023-11-19T05:41:51;96732.00;;;8.66;100.00
74708;BME280;63360;50.104;8.074;2023-11-19T05:44:17;96737.66;;;8.68;100.00
74708;BME280;63360;50.104;8.074;2023-11-19T05:46:44;96728.81;;;8.61;100.00
74708;BME280;63360;50.104;8.074;2023-11-19T05:49:11;96742.38;;;8.66;100.00
74708;BME280;63360;50.104;8.074;2023-11-19T05:51:39;96743.59;;;8.69;100.00
74708;BME280;63360;50.104;8.074;2023-11-19T05:54:07;96746.97;;;8.69;100.00
74708;BME280;63360;50.104;8.074;2023-11-19T05:56:34;96744.38;;;8.69;100.00
74708;BME280;63360;50.104;8.074;2023-11-19T05:59:01;96740.88;;;8.74;100.00
74708;BME280;63360;50.104;8.074;2023-11-19T06:01:29;96753.25;;;8.85;100.00
74708;BME280;63360;50.104;8.074;2023-11-19T06:03:56;96742.56;;;8.87;100.00
74708;BME280;63360;50.104;8.074;2023-11-19T06:06:22;96735.72;;;8.91;100.00
74708;BME280;63360;50.104;8.074;2023-11-19T06:08:48;96746.25;;;9.03;100.00
74708;BME280;63360;50.104;8.074;2023-11-19T06:11:16;96750.06;;;9.05;100.00
74708;BME280;63360;50.104;8.074;2023-11-19T06:13:46;96741.97;;;9.15;100.00
74708;BME280;63360;50.104;8.074;2023-11-19T06:16:14;96761.66;;;9.17;100.00
74708;BME280;63360;50.104;8.074;2023-11-19T06:18:40;96766.25;;;9.28;100.00
74708;BME280;63360;50.104;8.074;2023-11-19T06:21:07;96769.91;;;9.27;100.00
74708;BME280;63360;50.104;8.074;2023-11-19T06:23:34;96768.84;;;9.37;100.00
74708;BME280;63360;50.104;8.074;2023-11-19T06:26:00;96769.44;;;9.42;100.00
74708;BME280;63360;50.104;8.074;2023-11-19T06:28:27;96770.66;;;9.45;100.00
74708;BME280;63360;50.104;8.074;2023-11-19T06:30:53;96762.13;;;9.44;100.00
74708;BME280;63360;50.104;8.074;2023-11-19T06:33:20;96779.84;;;9.51;100.00
74708;BME280;63360;50.104;8.074;2023-11-19T06:35:46;96774.97;;;9.58;100.00
74708;BME280;63360;50.104;8.074;2023-11-19T06:38:13;96781.22;;;9.65;100.00
74708;BME280;63360;50.104;8.074;2023-11-19T06:40:40;96775.09;;;9.61;100.00
74708;BME280;63360;50.104;8.074;2023-11-19T06:43:07;96770.78;;;9.74;100.00
74708;BME280;63360;50.104;8.074;2023-11-19T06:45:35;96771.88;;;9.64;100.00
74708;BME280;63360;50.104;8.074;2023-11-19T06:48:03;96769.44;;;9.77;100.00
74708;BME280;63360;50.104;8.074;2023-11-19T06:50:31;96773.53;;;9.77;100.00
74708;BME280;63360;50.104;8.074;2023-11-19T06:52:58;96764.81;;;9.82;100.00
74708;BME280;63360;50.104;8.074;2023-11-19T06:55:26;96764.69;;;9.79;100.00
74708;BME280;63360;50.104;8.074;2023-11-19T06:57:53;96765.91;;;9.81;100.00
74708;BME280;63360;50.104;8.074;2023-11-19T07:00:19;96769.44;;;9.77;100.00
74708;BME280;63360;50.104;8.074;2023-11-19T07:02:46;96765.91;;;9.72;100.00
74708;BME280;63360;50.104;8.074;2023-11-19T07:05:12;96774.47;;;9.73;100.00
74708;BME280;63360;50.104;8.074;2023-11-19T07:07:39;96769.13;;;9.69;100.00
74708;BME280;63360;50.104;8.074;2023-11-19T07:10:06;96783.03;;;9.73;100.00
74708;BME280;63360;50.104;8.074;2023-11-19T07:12:35;96781.50;;;9.72;100.00
74708;BME280;63360;50.104;8.074;2023-11-19T07:15:02;96786.84;;;9.76;100.00
74708;BME280;63360;50.104;8.074;2023-11-19T07:17:30;96787.91;;;9.84;100.00
74708;BME280;63360;50.104;8.074;2023-11-19T07:19:57;96782.09;;;9.87;100.00
74708;BME280;63360;50.104;8.074;2023-11-19T07:22:26;96795.97;;;9.91;100.00
74708;BME280;63360;50.104;8.074;2023-11-19T07:24:52;96789.13;;;9.95;100.00
74708;BME280;63360;50.104;8.074;2023-11-19T07:27:19;96798.09;;;10.06;100.00
74708;BME280;63360;50.104;8.074;2023-11-19T07:29:45;96780.38;;;10.08;100.00
74708;BME280;63360;50.104;8.074;2023-11-19T07:32:12;96784.19;;;10.10;100.00
74708;BME280;63360;50.104;8.074;2023-11-19T07:34:39;96779.47;;;10.12;100.00
74708;BME280;63360;50.104;8.074;2023-11-19T07:37:06;96784.66;;;10.12;100.00
74708;BME280;63360;50.104;8.074;2023-11-19T07:39:33;96794.75;;;10.14;100.00
74708;BME280;63360;50.104;8.074;2023-11-19T07:42:01;96793.50;;;10.20;100.00
74708;BME280;63360;50.104;8.074;2023-11-19T07:44:27;96794.41;;;10.24;100.00
74708;BME280;63360;50.104;8.074;2023-11-19T07:46:54;96780.03;;;10.26;100.00
74708;BME280;63360;50.104;8.074;2023-11-19T07:49:20;96788.59;;;10.27;100.00
74708;BME280;63360;50.104;8.074;2023-11-19T07:51:47;96790.25;;;10.31;100.00
74708;BME280;63360;50.104;8.074;2023-11-19T07:54:13;96798.19;;;10.35;100.00
74708;BME280;63360;50.104;8.074;2023-11-19T07:56:40;96796.34;;;10.35;100.00
74708;BME280;63360;50.104;8.074;2023-11-19T07:59:06;96805.69;;;10.37;100.00
74708;BME280;63360;50.104;8.074;2023-11-19T08:01:33;96801.97;;;10.46;100.00
74708;BME280;63360;50.104;8.074;2023-11-19T08:03:59;96812.25;;;10.34;100.00
74708;BME280;63360;50.104;8.074;2023-11-19T08:06:26;96803.53;;;10.39;100.00
74708;BME280;63360;50.104;8.074;2023-11-19T08:08:52;96811.31;;;10.39;100.00
74708;BME280;63360;50.104;8.074;2023-11-19T08:11:19;96810.41;;;10.43;100.00
74708;BME280;63360;50.104;8.074;2023-11-19T08:13:48;96818.03;;;10.48;100.00
74708;BME280;63360;50.104;8.074;2023-11-19T08:16:15;96816.19;;;10.49;100.00
74708;BME280;63360;50.104;8.074;2023-11-19T08:18:44;96819.06;;;10.56;100.00
74708;BME280;63360;50.104;8.074;2023-11-19T08:21:11;96822.56;;;10.60;100.00
74708;BME280;63360;50.104;8.074;2023-11-19T08:23:37;96836.59;;;10.67;100.00
74708;BME280;63360;50.104;8.074;2023-11-19T08:26:05;96836.94;;;10.66;100.00
74708;BME280;63360;50.104;8.074;2023-11-19T08:28:32;96841.34;;;10.65;100.00
74708;BME280;63360;50.104;8.074;2023-11-19T08:31:00;96840.16;;;10.63;100.00
74708;BME280;63360;50.104;8.074;2023-11-19T08:33:27;96844.41;;;10.67;100.00
74708;BME280;63360;50.104;8.074;2023-11-19T08:35:54;96842.13;;;10.66;100.00
74708;BME280;63360;50.104;8.074;2023-11-19T08:38:21;96856.34;;;10.68;100.00
74708;BME280;63360;50.104;8.074;2023-11-19T08:40:50;96842.31;;;10.61;100.00
74708;BME280;63360;50.104;8.074;2023-11-19T08:43:18;96844.66;;;10.45;100.00
74708;BME280;63360;50.104;8.074;2023-11-19T08:45:44;96848.41;;;10.65;100.00
74708;BME280;63360;50.104;8.074;2023-11-19T08:48:11;96846.72;;;10.69;100.00
74708;BME280;63360;50.104;8.074;2023-11-19T08:50:37;96835.88;;;10.67;100.00
74708;BME280;63360;50.104;8.074;2023-11-19T08:53:04;96823.47;;;10.64;100.00
74708;BME280;63360;50.104;8.074;2023-11-19T08:55:33;96834.56;;;10.81;100.00
74708;BME280;63360;50.104;8.074;2023-11-19T08:57:59;96837.47;;;10.80;100.00
74708;BME280;63360;50.104;8.074;2023-11-19T09:00:26;96835.06;;;10.75;100.00
74708;BME280;63360;50.104;8.074;2023-11-19T09:02:52;96820.53;;;10.74;100.00
74708;BME280;63360;50.104;8.074;2023-11-19T09:05:19;96827.69;;;10.77;100.00
74708;BME280;63360;50.104;8.074;2023-11-19T09:07:45;96836.44;;;10.72;100.00
74708;BME280;63360;50.104;8.074;2023-11-19T09:10:12;96830.50;;;10.63;100.00
74708;BME280;63360;50.104;8.074;2023-11-19T09:12:38;96834.41;;;10.78;100.00
74708;BME280;63360;50.104;8.074;2023-11-19T09:15:05;96849.47;;;10.72;100.00
74708;BME280;63360;50.104;8.074;2023-11-19T09:17:32;96836.75;;;10.71;100.00
74708;BME280;63360;50.104;8.074;2023-11-19T09:19:59;96840.41;;;10.70;100.00
74708;BME280;63360;50.104;8.074;2023-11-19T09:22:25;96836.78;;;10.62;100.00
74708;BME280;63360;50.104;8.074;2023-11-19T09:24:52;96838.63;;;10.62;100.00
74708;BME280;63360;50.104;8.074;2023-11-19T09:27:18;96845.53;;;10.58;100.00
74708;BME280;63360;50.104;8.074;2023-11-19T09:29:44;96851.84;;;10.48;100.00
74708;BME280;63360;50.104;8.074;2023-11-19T09:32:12;96851.53;;;10.41;100.00
74708;BME280;63360;50.104;8.074;2023-11-19T09:34:39;96856.91;;;10.36;100.00
74708;BME280;63360;50.104;8.074;2023-11-19T09:37:05;96839.03;;;10.34;100.00
74708;BME280;63360;50.104;8.074;2023-11-19T09:39:47;96849.91;;;10.28;100.00
74708;BME280;63360;50.104;8.074;2023-11-19T09:42:13;96853.59;;;10.27;100.00
74708;BME280;63360;50.104;8.074;2023-11-19T09:44:42;96853.72;;;10.30;100.00
74708;BME280;63360;50.104;8.074;2023-11-19T09:47:10;96857.56;;;10.24;100.00
74708;BME280;63360;50.104;8.074;2023-11-19T09:49:37;96846.69;;;10.22;100.00
74708;BME280;63360;50.104;8.074;2023-11-19T09:52:04;96845.00;;;10.35;100.00
74708;BME280;63360;50.104;8.074;2023-11-19T09:54:30;96839.47;;;10.37;100.00
74708;BME280;63360;50.104;8.074;2023-11-19T09:56:58;96854.63;;;10.34;100.00
74708;BME280;63360;50.104;8.074;2023-11-19T09:59:30;96855.50;;;10.47;100.00
74708;BME280;63360;50.104;8.074;2023-11-19T10:01:57;96846.50;;;10.36;100.00
74708;BME280;63360;50.104;8.074;2023-11-19T10:04:23;96848.66;;;10.43;100.00
74708;BME280;63360;50.104;8.074;2023-11-19T10:06:51;96844.22;;;10.43;100.00
74708;BME280;63360;50.104;8.074;2023-11-19T10:09:18;96841.44;;;10.48;100.00
74708;BME280;63360;50.104;8.074;2023-11-19T10:11:45;96847.25;;;10.54;100.00
74708;BME280;63360;50.104;8.074;2023-11-19T10:14:11;96851.94;;;10.60;100.00
74708;BME280;63360;50.104;8.074;2023-11-19T10:16:39;96851.50;;;10.58;100.00
74708;BME280;63360;50.104;8.074;2023-11-19T10:19:06;96850.47;;;10.42;100.00
74708;BME280;63360;50.104;8.074;2023-11-19T10:21:33;96863.91;;;10.44;100.00
74708;BME280;63360;50.104;8.074;2023-11-19T10:24:00;96864.38;;;10.46;100.00
74708;BME280;63360;50.104;8.074;2023-11-19T10:26:27;96861.34;;;10.35;100.00
74708;BME280;63360;50.104;8.074;2023-11-19T10:28:55;96862.13;;;10.27;100.00
74708;BME280;63360;50.104;8.074;2023-11-19T10:31:21;96851.59;;;10.24;100.00
74708;BME280;63360;50.104;8.074;2023-11-19T10:33:51;96842.41;;;10.26;100.00
74708;BME280;63360;50.104;8.074;2023-11-19T10:36:18;96841.50;;;10.22;100.00
74708;BME280;63360;50.104;8.074;2023-11-19T10:38:53;96835.84;;;10.29;100.00
74708;BME280;63360;50.104;8.074;2023-11-19T10:41:29;96834.91;;;10.25;100.00
74708;BME280;63360;50.104;8.074;2023-11-19T10:44:00;96850.81;;;10.23;100.00
74708;BME280;63360;50.104;8.074;2023-11-19T10:46:39;96841.66;;;10.26;100.00
74708;BME280;63360;50.104;8.074;2023-11-19T10:49:07;96843.97;;;10.19;100.00
74708;BME280;63360;50.104;8.074;2023-11-19T10:51:34;96838.91;;;10.22;100.00
74708;BME280;63360;50.104;8.074;2023-11-19T10:54:05;96833.56;;;10.19;100.00
74708;BME280;63360;50.104;8.074;2023-11-19T10:56:33;96827.72;;;10.22;100.00
74708;BME280;63360;50.104;8.074;2023-11-19T10:59:00;96830.63;;;10.12;100.00
74708;BME280;63360;50.104;8.074;2023-11-19T11:01:33;96837.66;;;10.11;100.00
74708;BME280;63360;50.104;8.074;2023-11-19T11:04:01;96818.16;;;10.14;100.00
74708;BME280;63360;50.104;8.074;2023-11-19T11:06:29;96830.03;;;10.06;100.00
74708;BME280;63360;50.104;8.074;2023-11-19T11:08:56;96836.78;;;9.99;100.00
74708;BME280;63360;50.104;8.074;2023-11-19T11:11:22;96831.28;;;9.92;100.00
74708;BME280;63360;50.104;8.074;2023-11-19T11:13:53;96827.59;;;9.93;100.00
74708;BME280;63360;50.104;8.074;2023-11-19T11:16:22;96812.94;;;9.97;100.00
74708;BME280;63360;50.104;8.074;2023-11-19T11:18:49;96825.16;;;9.96;100.00
74708;BME280;63360;50.104;8.074;2023-11-19T11:21:19;96823.16;;;10.02;100.00
74708;BME280;63360;50.104;8.074;2023-11-19T11:29:37;96809.84;;;10.12;100.00
74708;BME280;63360;50.104;8.074;2023-11-19T11:32:20;96821.94;;;10.08;100.00
74708;BME280;63360;50.104;8.074;2023-11-19T11:37:46;96801.00;;;10.21;100.00
74708;BME280;63360;50.104;8.074;2023-11-19T11:40:17;96800.22;;;10.29;100.00
74708;BME280;63360;50.104;8.074;2023-11-19T11:42:44;96803.06;;;10.45;100.00
74708;BME280;63360;50.104;8.074;2023-11-19T11:45:15;96801.53;;;10.44;100.00
74708;BME280;63360;50.104;8.074;2023-11-19T11:50:10;96803.28;;;10.61;100.00
74708;BME280;63360;50.104;8.074;2023-11-19T11:55:36;96797.28;;;10.69;100.00
74708;BME280;63360;50.104;8.074;2023-11-19T11:58:05;96799.31;;;10.63;100.00
74708;BME280;63360;50.104;8.074;2023-11-19T12:00:41;96790.69;;;10.71;100.00
74708;BME280;63360;50.104;8.074;2023-11-19T12:03:08;96798.31;;;10.76;100.00
74708;BME280;63360;50.104;8.074;2023-11-19T12:05:44;96781.69;;;10.69;100.00
74708;BME280;63360;50.104;8.074;2023-11-19T12:08:14;96819.94;;;10.68;100.00
74708;BME280;63360;50.104;8.074;2023-11-19T12:10:47;96799.84;;;10.77;100.00
74708;BME280;63360;50.104;8.074;2023-11-19T12:13:15;96803.44;;;10.64;100.00
74708;BME280;63360;50.104;8.074;2023-11-19T12:18:27;96801.25;;;10.75;100.00
74708;BME280;63360;50.104;8.074;2023-11-19T12:20:54;96786.47;;;10.58;100.00
74708;BME280;63360;50.104;8.074;2023-11-19T12:23:24;96781.94;;;10.47;100.00
74708;BME280;63360;50.104;8.074;2023-11-19T12:25:51;96789.03;;;10.67;100.00
74708;BME280;63360;50.104;8.074;2023-11-19T12:28:18;96787.84;;;10.64;100.00
74708;BME280;63360;50.104;8.074;2023-11-19T12:30:45;96785.84;;;10.61;100.00
74708;BME280;63360;50.104;8.074;2023-11-19T12:33:15;96788.34;;;10.78;100.00
74708;BME280;63360;50.104;8.074;2023-11-19T12:35:43;96782.72;;;10.76;100.00
74708;BME280;63360;50.104;8.074;2023-11-19T12:38:20;96768.56;;;10.86;100.00
74708;BME280;63360;50.104;8.074;2023-11-19T12:41:09;96754.44;;;10.95;100.00
74708;BME280;63360;50.104;8.074;2023-11-19T12:43:39;96752.91;;;10.94;100.00
74708;BME280;63360;50.104;8.074;2023-11-19T12:46:22;96750.25;;;11.03;100.00
74708;BME280;63360;50.104;8.074;2023-11-19T12:48:50;96766.88;;;10.90;100.00
74708;BME280;63360;50.104;8.074;2023-11-19T12:51:17;96765.47;;;10.92;100.00
74708;BME280;63360;50.104;8.074;2023-11-19T12:53:48;96757.72;;;10.84;100.00
74708;BME280;63360;50.104;8.074;2023-11-19T12:56:15;96750.81;;;10.88;100.00
74708;BME280;63360;50.104;8.074;2023-11-19T12:58:42;96755.56;;;10.86;100.00
74708;BME280;63360;50.104;8.074;2023-11-19T13:01:09;96745.66;;;10.79;100.00
74708;BME280;63360;50.104;8.074;2023-11-19T13:03:38;96752.09;;;11.03;100.00
74708;BME280;63360;50.104;8.074;2023-11-19T13:06:07;96748.25;;;10.79;100.00
74708;BME280;63360;50.104;8.074;2023-11-19T13:08:44;96754.03;;;10.85;100.00
74708;BME280;63360;50.104;8.074;2023-11-19T13:11:12;96740.13;;;10.81;100.00
74708;BME280;63360;50.104;8.074;2023-11-19T13:14:01;96746.63;;;10.75;100.00
74708;BME280;63360;50.104;8.074;2023-11-19T13:16:30;96738.34;;;10.73;100.00